Portada
METAR-TAF:

METAR-TAF

Aeropuertos :

Ekaterimburgo, Rusia

Aeropuerto de Ekaterimburgo-Koltsovo

latitud: 56-50N, longitud: 060-38E, altitud: 237 m

Observación

El informe se hizo hace 22 minutos, a las 01:00 UTC
Viento 6 kt del oeste-suroeste
Temperatura 0°C
Humedad 93%
Presión 1024 hPa
Visibilidad 10 km o más
sin nubes por debajo de 1500 m y sin presencia de cumulonimbus.

METAR: USSS 270100Z 25003MPS CAVOK M00/M01 Q1024 R26R/150050 NOSIG RMK QFE747/0996

Hora: 06:22 (01:22 UTC)

Pronóstico

El informe se hizo hace 2 horas y 21 minutos, a las 23:01 UTC
Pronóstico válido del 27 a las 00 UTC al 27 a las 24 UTC
Viento 8 kt del oeste-noroeste
Visibilidad: 3100 m
Nubes dispersas a una altura de 1100 ft
neblina
Evolucionando progresivamente
del 27 a las 02 UTC al 27 a las 04 UTC
Visibilidad 10 km o más
Nubes dispersas a una altura de 3000 ft

TAF: USSS 262301Z 2700/2724 29004MPS 3100 BR SCT011 BECMG 2702/2704 9999 NSW SCT030

Observaciones y pronósticos meteorológicos de más de 4000 aeropuertos (mensajes METAR y TAF).

Los puntos amarillos y rojos representan las estaciones disponibles.

Ponga el ratón en el punto deseado para ver el nombre de la estación.

Haga clic para ver las observaciones y los pronósticos meteorológicos.

Para cambiar el mapa : haga clic en los botones verdes con una cruz de color negro para hacer un zoom, en el botón verde con un guión para alejar o en las flechas verdes para mapas adyacentes.


METAR-TAF: